Pagrindinis puslapis
METAR-TAF:

METAR-TAF

Oro uostai :

Brookhaven Airport

Shirley, Niujorko valstija, Jungtinės Amerikos Valstijos

platuma: 40-49-18N, ilguma: 072-52-08W, Aukštis: 25 m

Dabartinis oras

Ataskaita buvo paskelbta 10 minutes, ne 06:56 UTC
Vėjas 10 kt iš Vakarų/Pietvakarių su gūsio iki 23 kt
Temperatūra -1°C
Drėgmė 40%
Slėgis 1010 hPa
Matomumas: 16.1 km
Giedras dangus

METAR: KHWV 280656Z AUTO 25010G23KT 10SM CLR M01/M13 A2982 RMK AO2 SLP098 T10061128 TSNO

Laikas: 02:06 (07:06 UTC)


TAF: trūkstamas

Orai ataskaitas ir orų prognozės (METAR, TAF).

turimą stotys yra geltonos ir raudonos taškus žemėlapyje.

Perkelti pele per norėdami pamatyti stoties vardą.

Tada spustelėkite, norėdami matyti oro stebėjimo ir prognozės.

Norėdami pakeisti žemėlapį: spustelėkite ant žalios mygtukų su juodo kryžiaus žemyn,; žalią mygtuką su brūkšneliu, jei norite nutolinti; arba žalių rodyklių gretimoms žemėlapius.


METAR-TAF: